Time;durP1;ratioP1;P1;durP2;ratioP2;P2;SDS_P1;SDS_P2;PMS_P1;PMS_P2;Temp;Humidity;BMP_temperature;BMP_pressure;BME280_temperature;BME280_humidity;BME280_pressure;Samples;Min_cycle;Max_cycle;Signal;HPM_P1;HPM_P2
2020/12/28 00:01:42;;;;;;;12.20;6.05;;;;;;;0.43;100.00;97296.11;4329215;81;43208;-77
2020/12/28 00:07:48;;;;;;;15.90;6.80;;;;;;;0.20;100.00;97265.67;4319173;82;28567;-76
2020/12/28 00:13:51;;;;;;;16.25;7.22;;;;;;;0.09;100.00;97234.61;4310767;82;43904;-76
2020/12/28 00:19:53;;;;;;;16.57;7.58;;;;;;;0.03;100.00;97220.40;4324313;80;43903;-76
2020/12/28 00:25:55;;;;;;;17.90;7.67;;;;;;;0.00;100.00;97231.39;4317214;80;43950;-76
2020/12/28 00:31:57;;;;;;;17.12;7.03;;;;;;;-0.12;100.00;97241.77;4301142;82;44016;-76
2020/12/28 00:37:59;;;;;;;13.75;6.37;;;;;;;-0.26;100.00;97244.94;4316255;81;43919;-75
2020/12/28 00:44:01;;;;;;;14.93;6.80;;;;;;;-0.20;100.00;97228.28;4342510;82;43997;-76
2020/12/28 00:50:06;;;;;;;16.00;6.50;;;;;;;-0.32;100.00;97214.88;4324151;82;43912;-76
2020/12/28 00:56:09;;;;;;;16.75;6.80;;;;;;;-0.48;100.00;97235.10;4339921;80;28559;-75
2020/12/28 01:02:11;;;;;;;16.42;6.28;;;;;;;-0.70;100.00;97227.40;4356161;81;43965;-76
2020/12/28 01:08:15;;;;;;;12.40;5.17;;;;;;;-0.63;100.00;97194.39;4339169;81;43245;-76
2020/12/28 01:14:18;;;;;;;12.70;4.87;;;;;;;-0.39;100.00;97180.27;4324260;81;43252;-76
2020/12/28 01:20:21;;;;;;;10.40;4.92;;;;;;;-0.26;100.00;97166.20;4308210;81;43232;-76
2020/12/28 01:26:25;;;;;;;12.05;4.37;;;;;;;-0.04;100.00;97157.01;4316700;81;43249;-77
2020/12/28 01:32:30;;;;;;;10.30;4.10;;;;;;;0.13;100.00;97175.02;4318298;81;28608;-76
2020/12/28 01:38:36;;;;;;;11.43;5.20;;;;;;;0.12;100.00;97168.11;4309834;81;43238;-76
2020/12/28 01:44:38;;;;;;;9.45;4.00;;;;;;;-0.02;100.00;97167.35;4345012;81;42724;-75
2020/12/28 01:50:42;;;;;;;6.72;2.45;;;;;;;-0.19;100.00;97161.23;4307725;81;41875;-76
2020/12/28 01:56:47;;;;;;;6.53;2.90;;;;;;;0.05;100.00;97143.54;4376801;80;28658;-75
2020/12/28 02:02:50;;;;;;;5.13;2.53;;;;;;;0.16;100.00;97128.86;4339997;80;28579;-76
2020/12/28 02:08:54;;;;;;;4.78;1.95;;;;;;;0.27;100.00;97130.34;4336150;81;43486;-75
2020/12/28 02:14:57;;;;;;;3.92;2.12;;;;;;;0.34;100.00;97128.98;4329953;81;43380;-76
2020/12/28 02:21:04;;;;;;;3.45;1.35;;;;;;;0.31;100.00;97110.08;4338559;81;28619;-77
2020/12/28 02:27:07;;;;;;;3.20;1.40;;;;;;;0.42;100.00;97113.37;4340879;81;43228;-76
2020/12/28 02:33:09;;;;;;;2.40;1.02;;;;;;;0.62;100.00;97088.63;4377902;81;43538;-76
2020/12/28 02:39:16;;;;;;;2.37;1.20;;;;;;;0.73;100.00;97074.70;4302319;80;43261;-76
2020/12/28 02:45:22;;;;;;;1.45;0.82;;;;;;;0.71;100.00;97066.17;4306584;81;42741;-77
2020/12/28 02:51:43;;;;;;;2.50;1.02;;;;;;;0.81;100.00;97064.34;4318902;81;28584;-76
2020/12/28 02:58:12;;;;;;;1.45;0.70;;;;;;;1.00;100.00;97057.28;4397425;79;84795;-75
2020/12/28 03:04:33;;;;;;;1.30;0.80;;;;;;;1.17;100.00;97057.52;4296743;82;42713;-76
2020/12/28 03:10:56;;;;;;;1.32;0.60;;;;;;;1.24;100.00;97062.73;4555908;76;84848;-77
2020/12/28 03:17:17;;;;;;;1.32;0.57;;;;;;;1.08;100.00;97041.63;4463451;79;28564;-77
2020/12/28 03:23:37;;;;;;;1.92;0.50;;;;;;;1.08;100.00;97026.53;4449255;79;42883;-77
2020/12/28 03:29:58;;;;;;;0.78;0.50;;;;;;;1.21;100.00;97013.68;4386976;81;28544;-76
2020/12/28 03:36:18;;;;;;;1.20;0.60;;;;;;;1.26;100.00;97013.02;4386332;80;28545;-76
2020/12/28 03:42:39;;;;;;;1.35;0.57;;;;;;;1.19;100.00;96993.24;4323586;82;28637;-76
2020/12/28 03:49:00;;;;;;;0.45;0.45;;;;;;;0.98;100.00;96962.72;4346002;82;28614;-76
2020/12/28 03:55:23;;;;;;;1.15;0.50;;;;;;;1.00;100.00;96958.54;4420599;80;28567;-77
2020/12/28 04:01:43;;;;;;;1.02;0.40;;;;;;;1.07;100.00;96952.13;4369181;81;28617;-76
2020/12/28 04:08:06;;;;;;;1.10;0.50;;;;;;;1.14;100.00;96954.70;4375687;81;28610;-76
2020/12/28 04:14:26;;;;;;;1.52;0.53;;;;;;;1.07;100.00;96936.25;4321499;82;28542;-76
2020/12/28 04:20:28;;;;;;;1.10;0.50;;;;;;;1.06;100.00;96939.14;4383961;81;42689;-76
2020/12/28 04:26:31;;;;;;;1.15;0.30;;;;;;;1.02;100.00;96925.54;4395440;81;42688;-77
2020/12/28 04:32:33;;;;;;;1.15;0.30;;;;;;;0.89;100.00;96905.86;4407641;80;28578;-76
2020/12/28 04:38:35;;;;;;;1.35;0.53;;;;;;;1.00;100.00;96903.79;4324355;81;28618;-77
2020/12/28 04:44:37;;;;;;;0.40;0.30;;;;;;;1.07;100.00;96887.83;4374800;81;28566;-76
2020/12/28 04:50:40;;;;;;;0.25;0.15;;;;;;;1.04;100.00;96882.95;4305076;82;42469;-76
2020/12/28 04:56:42;;;;;;;0.40;0.30;;;;;;;1.01;100.00;96877.62;4272477;82;28626;-77
2020/12/28 05:02:46;;;;;;;1.15;0.50;;;;;;;1.02;100.00;96876.58;4316536;81;28587;-76
2020/12/28 05:08:48;;;;;;;1.00;0.40;;;;;;;1.11;100.00;96885.83;4393960;81;28557;-76
2020/12/28 05:14:50;;;;;;;1.87;0.50;;;;;;;1.27;100.00;96878.82;4320742;81;42882;-76
2020/12/28 05:20:52;;;;;;;3.60;0.50;;;;;;;1.22;100.00;96856.98;4395727;81;28611;-75
2020/12/28 05:26:57;;;;;;;2.42;0.80;;;;;;;1.15;100.00;96847.00;4375915;81;28640;-76
2020/12/28 05:33:04;;;;;;;1.12;0.60;;;;;;;1.37;100.00;96840.16;4397079;80;42688;-76
2020/12/28 05:39:08;;;;;;;1.07;0.45;;;;;;;1.45;100.00;96835.59;4385051;80;28568;-76
2020/12/28 05:45:10;;;;;;;1.02;0.45;;;;;;;1.30;100.00;96831.53;4331607;81;28557;-77
2020/12/28 05:51:12;;;;;;;0.53;0.33;;;;;;;1.22;100.00;96813.31;4403273;79;28586;-75
2020/12/28 05:57:15;;;;;;;1.15;0.50;;;;;;;1.27;100.00;96808.13;4364312;81;28577;-75
2020/12/28 06:03:25;;;;;;;1.00;0.60;;;;;;;1.43;100.00;96798.73;4375465;81;28580;-75
2020/12/28 06:09:29;;;;;;;0.98;0.47;;;;;;;1.38;100.00;96792.00;4392599;80;28584;-75
2020/12/28 06:15:31;;;;;;;0.82;0.40;;;;;;;1.28;100.00;96781.95;4383895;81;28543;-75
2020/12/28 06:21:37;;;;;;;0.70;0.50;;;;;;;1.21;100.00;96779.40;4304488;82;28578;-76
2020/12/28 06:27:45;;;;;;;1.90;0.70;;;;;;;1.26;100.00;96802.55;4342587;81;28631;-76
2020/12/28 06:33:49;;;;;;;1.65;0.70;;;;;;;0.90;100.00;96806.93;4351040;81;28536;-76
2020/12/28 06:39:57;;;;;;;1.47;0.82;;;;;;;0.75;100.00;96834.56;4289482;81;28566;-77
2020/12/28 06:45:59;;;;;;;1.17;0.68;;;;;;;0.30;100.00;96841.48;4361287;81;28621;-78
2020/12/28 06:52:02;;;;;;;1.70;0.78;;;;;;;0.62;100.00;96836.05;4368017;81;28548;-77
2020/12/28 06:58:04;;;;;;;1.80;0.80;;;;;;;0.89;100.00;96835.74;4358975;81;28595;-77
2020/12/28 07:04:06;;;;;;;0.95;0.62;;;;;;;1.15;100.00;96812.09;4412345;80;28581;-76
2020/12/28 07:10:12;;;;;;;1.85;1.02;;;;;;;1.06;100.00;96814.22;4371125;81;28571;-75
2020/12/28 07:16:15;;;;;;;1.95;1.20;;;;;;;1.06;100.00;96811.58;4351811;81;43218;-77
2020/12/28 07:22:17;;;;;;;2.50;1.00;;;;;;;1.10;100.00;96800.84;4324391;80;28551;-77
2020/12/28 07:28:19;;;;;;;3.58;1.10;;;;;;;1.34;100.00;96774.94;4347135;81;43209;-76
2020/12/28 07:34:21;;;;;;;1.52;0.82;;;;;;;1.54;100.00;96777.28;4333278;81;28589;-75
2020/12/28 07:40:23;;;;;;;1.92;1.22;;;;;;;1.47;100.00;96791.96;4341743;81;28583;-75
2020/12/28 07:46:37;;;;;;;2.27;1.07;;;;;;;1.67;100.00;96785.00;4371674;81;28579;-78
2020/12/28 07:52:47;;;;;;;3.62;1.20;;;;;;;1.59;100.00;96750.11;4321164;81;28873;-77
2020/12/28 07:59:12;;;;;;;7.60;1.15;;;;;;;1.48;100.00;96735.31;4346565;80;43233;-78
2020/12/28 08:19:06;;;;;;;2.92;1.32;;;;;;;3.52;100.00;96704.39;4489647;79;84883;-83
2020/12/28 08:25:10;;;;;;;3.35;1.70;;;;;;;3.58;100.00;96698.09;4313746;81;28595;-80
2020/12/28 08:31:13;;;;;;;9.53;2.30;;;;;;;3.71;100.00;96687.66;4262504;81;28661;-80
2020/12/28 08:37:19;;;;;;;5.75;1.70;;;;;;;3.74;100.00;96670.42;4302009;81;28544;-81
2020/12/28 08:43:21;;;;;;;3.58;1.60;;;;;;;3.80;100.00;96666.80;4309415;81;28575;-81
2020/12/28 08:55:43;;;;;;;2.60;1.47;;;;;;;4.21;100.00;96647.86;4396137;79;64717;-91
2020/12/28 09:01:52;;;;;;;2.37;1.30;;;;;;;4.44;100.00;96653.95;4346398;80;28592;-81
2020/12/28 09:07:54;;;;;;;2.98;1.95;;;;;;;4.81;100.00;96648.45;4348840;81;28588;-78
2020/12/28 09:13:57;;;;;;;4.35;1.72;;;;;;;4.99;100.00;96645.42;4319491;81;28924;-80
2020/12/28 09:19:59;;;;;;;5.45;2.10;;;;;;;5.14;100.00;96634.09;4301248;81;28547;-82
2020/12/28 09:26:01;;;;;;;2.55;1.90;;;;;;;5.34;100.00;96622.48;4291488;82;28548;-82
2020/12/28 09:32:04;;;;;;;4.00;1.70;;;;;;;5.44;100.00;96620.70;4300016;81;28611;-81
2020/12/28 09:38:05;;;;;;;3.33;1.52;;;;;;;5.46;100.00;96622.30;4314540;81;28579;-81
2020/12/28 09:44:07;;;;;;;2.83;1.52;;;;;;;5.52;100.00;96594.09;4319081;81;28600;-80
2020/12/28 09:50:09;;;;;;;3.60;1.60;;;;;;;5.65;100.00;96581.34;4313844;80;28598;-79
2020/12/28 09:56:12;;;;;;;6.47;1.90;;;;;;;5.71;100.00;96573.11;4335605;81;28585;-79
2020/12/28 10:02:14;;;;;;;3.15;1.90;;;;;;;5.79;100.00;96575.02;4315836;81;28550;-79
2020/12/28 10:08:16;;;;;;;3.08;1.80;;;;;;;5.67;100.00;96581.89;4341787;81;28543;-79
2020/12/28 10:14:19;;;;;;;3.50;1.70;;;;;;;5.55;100.00;96586.90;4332357;81;28576;-79
2020/12/28 10:20:21;;;;;;;3.67;1.62;;;;;;;5.42;100.00;96581.52;4327982;81;28563;-80
2020/12/28 10:26:28;;;;;;;4.27;2.00;;;;;;;5.43;100.00;96568.98;4326267;80;28577;-78
2020/12/28 10:32:31;;;;;;;3.52;1.80;;;;;;;5.53;100.00;96568.25;4335950;81;28576;-79
2020/12/28 10:38:33;;;;;;;3.72;1.65;;;;;;;5.66;100.00;96554.95;4324513;81;28693;-78
2020/12/28 10:44:35;;;;;;;3.92;1.90;;;;;;;5.70;100.00;96573.39;4324898;81;28604;-78
2020/12/28 10:50:38;;;;;;;3.08;1.50;;;;;;;5.70;100.00;96552.84;4334702;81;28730;-79
2020/12/28 10:56:40;;;;;;;1.85;1.40;;;;;;;5.76;100.00;96552.88;4306695;82;28611;-80
2020/12/28 11:02:44;;;;;;;3.52;1.65;;;;;;;5.80;100.00;96552.09;4350645;80;28551;-81
2020/12/28 11:08:48;;;;;;;2.80;1.60;;;;;;;5.95;100.00;96551.87;4294878;82;28552;-82
2020/12/28 11:14:51;;;;;;;6.00;2.42;;;;;;;6.11;100.00;96566.08;4276779;82;28552;-80
2020/12/28 11:20:53;;;;;;;3.52;2.00;;;;;;;6.28;100.00;96581.85;4313307;82;28567;-80
2020/12/28 11:26:55;;;;;;;4.65;2.20;;;;;;;6.39;100.00;96596.03;4303473;82;28610;-89
2020/12/28 11:32:57;;;;;;;6.83;2.67;;;;;;;6.37;100.00;96602.95;4309778;82;28652;-79
2020/12/28 11:39:03;;;;;;;5.80;2.62;;;;;;;6.37;100.00;96607.52;4314680;80;28556;-79
2020/12/28 11:45:09;;;;;;;4.67;2.13;;;;;;;6.30;100.00;96597.61;4304530;82;37504;-78
2020/12/28 11:51:11;;;;;;;5.05;2.40;;;;;;;6.28;100.00;96592.53;4313018;80;28587;-79
2020/12/28 11:57:14;;;;;;;4.30;2.45;;;;;;;6.26;100.00;96582.66;4200932;83;28610;-79
2020/12/28 12:03:16;;;;;;;2.08;1.07;;;;;;;6.30;100.00;96617.11;4210054;84;28574;-79
2020/12/28 12:09:18;;;;;;;1.30;0.65;;;;;;;6.37;100.00;96602.95;4224988;83;28675;-79
2020/12/28 12:15:20;;;;;;;3.17;0.50;;;;;;;6.45;100.00;96591.50;4196475;84;28549;-78
2020/12/28 12:21:22;;;;;;;1.42;0.68;;;;;;;6.48;100.00;96600.31;4222397;83;28554;-79
2020/12/28 12:27:25;;;;;;;1.25;0.60;;;;;;;6.46;100.00;96597.92;4230602;83;28617;-81
2020/12/28 12:33:29;;;;;;;1.27;0.60;;;;;;;6.44;100.00;96606.70;4220769;83;28590;-79
2020/12/28 12:39:31;;;;;;;1.25;0.50;;;;;;;6.38;100.00;96601.89;4327307;82;28545;-79
2020/12/28 12:45:33;;;;;;;1.55;0.60;;;;;;;6.33;100.00;96601.89;4314122;81;28560;-80
2020/12/28 12:51:36;;;;;;;1.25;0.62;;;;;;;6.25;100.00;96624.56;4323671;81;28591;-78
2020/12/28 12:57:38;;;;;;;1.37;0.60;;;;;;;6.27;100.00;96648.30;4343984;81;28568;-78
2020/12/28 13:03:40;;;;;;;2.02;0.57;;;;;;;6.25;100.00;96647.25;4333835;81;28568;-80
2020/12/28 13:09:42;;;;;;;0.93;0.40;;;;;;;6.21;100.00;96672.05;4144520;84;28562;-79
2020/12/28 13:15:45;;;;;;;1.37;0.53;;;;;;;6.10;100.00;96694.68;4193575;84;28647;-78
2020/12/28 13:21:48;;;;;;;1.50;0.60;;;;;;;6.08;100.00;96687.99;4237968;83;28626;-78
2020/12/28 13:27:52;;;;;;;1.22;0.78;;;;;;;6.03;100.00;96698.10;4173287;84;28562;-79
2020/12/28 13:33:54;;;;;;;2.83;0.50;;;;;;;6.00;100.00;96705.27;4192778;83;28593;-80
2020/12/28 13:39:56;;;;;;;0.95;0.55;;;;;;;5.98;100.00;96690.84;4181479;84;28584;-79
2020/12/28 13:45:58;;;;;;;1.60;0.78;;;;;;;5.99;100.00;96679.66;4175027;84;28632;-80
2020/12/28 13:52:00;;;;;;;1.62;0.70;;;;;;;6.00;100.00;96665.26;4208106;82;28612;-79
2020/12/28 13:58:02;;;;;;;1.65;0.70;;;;;;;5.97;100.00;96680.42;4277403;81;28549;-79
2020/12/28 14:04:04;;;;;;;1.55;0.70;;;;;;;6.00;100.00;96683.38;4268434;82;28566;-81
2020/12/28 14:10:06;;;;;;;1.00;0.55;;;;;;;6.05;100.00;96669.84;4341785;81;28586;-80
2020/12/28 14:16:11;;;;;;;0.85;0.42;;;;;;;6.04;100.00;96689.55;4336390;81;28604;-80
2020/12/28 14:22:13;;;;;;;1.47;0.55;;;;;;;6.03;100.00;96709.29;4358296;80;28653;-79
2020/12/28 14:28:15;;;;;;;1.00;0.50;;;;;;;5.99;100.00;96727.67;4345791;81;28565;-79
2020/12/28 14:34:17;;;;;;;0.80;0.40;;;;;;;6.02;99.49;96693.83;4191583;84;28646;-79
2020/12/28 14:40:20;;;;;;;0.65;0.30;;;;;;;6.01;100.00;96722.87;4342735;80;28583;-80
2020/12/28 14:46:23;;;;;;;0.70;0.30;;;;;;;6.00;99.54;96685.27;4337304;80;28609;-80
2020/12/28 14:52:26;;;;;;;2.58;0.50;;;;;;;6.03;100.00;96690.10;4331953;80;28609;-82
2020/12/28 14:58:31;;;;;;;0.80;0.40;;;;;;;5.98;100.00;96708.19;4192928;83;28556;-80
2020/12/28 15:04:34;;;;;;;1.40;0.65;;;;;;;5.98;100.00;96697.52;4206121;84;28570;-80
2020/12/28 15:10:36;;;;;;;0.90;0.57;;;;;;;5.92;100.00;96692.42;4251810;83;28625;-84
2020/12/28 15:16:38;;;;;;;1.47;0.68;;;;;;;6.03;100.00;96707.44;4214697;83;28595;-82
2020/12/28 15:22:40;;;;;;;1.30;0.70;;;;;;;6.02;100.00;96721.03;4320434;81;28631;-86
2020/12/28 15:28:43;;;;;;;2.00;0.98;;;;;;;5.96;100.00;96743.66;4319193;80;28542;-84
2020/12/28 15:34:45;;;;;;;1.95;0.82;;;;;;;5.91;100.00;96760.95;4306764;82;28583;-84
2020/12/28 15:40:48;;;;;;;1.87;0.85;;;;;;;5.80;100.00;96763.27;4316696;80;28596;-84
2020/12/28 15:46:52;;;;;;;2.27;0.93;;;;;;;5.68;100.00;96760.26;4320628;82;28567;-85
2020/12/28 15:52:54;;;;;;;3.15;1.55;;;;;;;5.57;100.00;96762.58;4311049;81;28585;-85
2020/12/28 15:58:59;;;;;;;2.52;1.22;;;;;;;5.46;100.00;96767.55;4321709;80;28623;-85
2020/12/28 16:05:04;;;;;;;2.65;1.20;;;;;;;5.37;100.00;96785.88;4166548;84;28659;-81
2020/12/28 16:11:06;;;;;;;3.40;1.30;;;;;;;5.29;100.00;96792.44;4186164;84;28605;-84
2020/12/28 16:17:09;;;;;;;2.75;1.20;;;;;;;5.15;100.00;96796.03;4251980;82;28687;-81
2020/12/28 16:23:15;;;;;;;3.62;1.42;;;;;;;5.15;100.00;96786.20;4193389;83;28569;-82
2020/12/28 16:29:17;;;;;;;3.60;1.20;;;;;;;5.09;100.00;96783.73;4173285;84;28586;-82
2020/12/28 16:35:19;;;;;;;4.55;1.70;;;;;;;5.01;100.00;96782.34;4171499;84;28616;-81
2020/12/28 16:41:28;;;;;;;5.30;2.60;;;;;;;5.08;100.00;96779.47;4176678;83;28645;-80
2020/12/28 16:47:30;;;;;;;7.58;3.22;;;;;;;5.04;100.00;96775.17;4191779;83;28620;-81
2020/12/28 16:53:32;;;;;;;6.33;3.00;;;;;;;5.03;100.00;96759.70;4168005;84;28581;-82
2020/12/28 16:59:35;;;;;;;9.03;4.08;;;;;;;4.92;100.00;96766.52;4315722;82;28592;-81
2020/12/28 17:05:37;;;;;;;13.20;5.58;;;;;;;4.84;100.00;96765.09;4301456;81;28588;-81
2020/12/28 17:11:43;;;;;;;16.32;7.15;;;;;;;4.76;100.00;96782.31;4330327;81;28572;-83
2020/12/28 17:17:45;;;;;;;18.27;7.93;;;;;;;4.63;100.00;96776.84;4290396;82;28579;-84
2020/12/28 17:23:47;;;;;;;15.25;6.85;;;;;;;4.39;100.00;96768.32;4311847;82;28607;-82
2020/12/28 17:29:50;;;;;;;17.62;7.72;;;;;;;4.31;100.00;96761.03;4310800;82;28618;-82
2020/12/28 17:35:52;;;;;;;17.40;8.15;;;;;;;4.22;100.00;96739.91;4302775;82;28627;-81
2020/12/28 17:41:54;;;;;;;22.27;9.45;;;;;;;4.13;100.00;96725.42;4318395;82;28569;-81
2020/12/28 17:47:57;;;;;;;21.60;10.28;;;;;;;4.04;100.00;96725.05;4286684;81;28552;-81
2020/12/28 17:54:01;;;;;;;17.77;8.38;;;;;;;3.93;100.00;96714.00;4309633;81;28652;-82
2020/12/28 18:00:07;;;;;;;19.95;8.40;;;;;;;3.82;100.00;96716.52;4164764;84;28616;-82
2020/12/28 18:06:15;;;;;;;26.37;10.35;;;;;;;3.78;100.00;96718.04;4238339;83;28600;-81
2020/12/28 18:12:20;;;;;;;20.27;9.50;;;;;;;3.61;100.00;96719.39;4212263;84;28584;-81
2020/12/28 18:18:22;;;;;;;22.82;10.15;;;;;;;3.66;100.00;96727.97;4184896;84;28553;-82
2020/12/28 18:24:24;;;;;;;16.90;7.92;;;;;;;3.60;100.00;96721.77;4175111;84;28557;-81
2020/12/28 18:30:26;;;;;;;18.07;8.48;;;;;;;3.74;100.00;96710.28;4187305;84;28557;-81
2020/12/28 18:36:29;;;;;;;18.85;9.23;;;;;;;3.82;100.00;96696.59;4179799;84;28587;-82
2020/12/28 18:42:32;;;;;;;16.62;7.83;;;;;;;3.79;100.00;96676.33;4187366;84;28588;-81
2020/12/28 18:48:34;;;;;;;16.97;7.70;;;;;;;3.78;100.00;96685.36;4204172;84;28567;-80
2020/12/28 18:54:37;;;;;;;16.70;7.40;;;;;;;3.88;100.00;96694.25;4198138;84;28633;-82
2020/12/28 19:00:45;;;;;;;14.25;6.37;;;;;;;3.82;100.00;96691.78;4192191;84;28618;-81
2020/12/28 19:06:58;;;;;;;12.30;5.70;;;;;;;3.84;100.00;96672.39;4198591;84;29003;-81
2020/12/28 19:13:00;;;;;;;10.82;5.45;;;;;;;3.85;100.00;96659.38;4215973;84;28601;-82
2020/12/28 19:19:02;;;;;;;12.05;5.45;;;;;;;3.87;100.00;96664.73;4173757;84;28656;-82
2020/12/28 19:25:05;;;;;;;12.47;5.17;;;;;;;3.85;100.00;96670.02;4190996;83;28586;-79
2020/12/28 19:31:08;;;;;;;11.88;5.03;;;;;;;3.85;100.00;96670.02;4201781;84;28559;-80
2020/12/28 19:37:11;;;;;;;9.15;4.45;;;;;;;3.86;100.00;96645.85;4193532;83;28626;-80
2020/12/28 19:43:15;;;;;;;8.90;4.12;;;;;;;3.92;100.00;96633.42;4175855;84;28647;-80
2020/12/28 19:49:20;;;;;;;7.25;3.47;;;;;;;4.02;100.00;96618.14;4224678;83;28598;-81
2020/12/28 19:55:22;;;;;;;7.62;3.90;;;;;;;4.16;100.00;96612.70;4192781;84;28557;-81
2020/12/28 20:01:24;;;;;;;6.97;2.98;;;;;;;4.32;100.00;96615.00;4180136;84;28582;-81
2020/12/28 20:07:27;;;;;;;7.10;3.22;;;;;;;4.58;100.00;96607.80;4176534;84;28605;-79
2020/12/28 20:13:29;;;;;;;6.65;3.83;;;;;;;4.71;100.00;96587.95;4183577;83;28597;-80
2020/12/28 20:19:32;;;;;;;9.08;4.20;;;;;;;4.74;100.00;96584.78;4212110;83;28612;-80
2020/12/28 20:25:34;;;;;;;8.10;3.75;;;;;;;4.69;100.00;96588.20;4162557;83;28595;-82
2020/12/28 20:31:36;;;;;;;6.85;3.10;;;;;;;4.64;100.00;96581.52;4180104;84;28576;-83
2020/12/28 20:37:39;;;;;;;5.00;2.58;;;;;;;4.62;100.00;96570.30;4191265;84;28549;-81
2020/12/28 20:43:41;;;;;;;5.72;2.55;;;;;;;4.62;100.00;96575.62;4153376;84;28559;-82
2020/12/28 20:49:43;;;;;;;4.22;1.75;;;;;;;4.66;100.00;96565.27;4184275;84;28612;-82
2020/12/28 20:55:45;;;;;;;4.62;1.70;;;;;;;4.73;100.00;96553.89;4236194;82;28606;-81
2020/12/28 21:01:48;;;;;;;3.58;1.82;;;;;;;4.91;100.00;96546.03;4258369;82;28649;-82
2020/12/28 21:07:50;;;;;;;4.28;2.15;;;;;;;5.09;100.00;96532.83;4312966;81;28565;-82
2020/12/28 21:13:53;;;;;;;3.47;2.05;;;;;;;5.21;100.00;96527.85;4332193;81;28539;-82
2020/12/28 21:19:55;;;;;;;3.92;2.02;;;;;;;5.24;100.00;96511.34;4344222;81;28546;-82
2020/12/28 21:25:58;;;;;;;3.52;1.92;;;;;;;5.25;100.00;96500.95;4342108;81;28633;-82
2020/12/28 21:32:00;;;;;;;3.52;1.70;;;;;;;5.28;100.00;96505.76;4238726;83;28642;-79
2020/12/28 21:38:03;;;;;;;5.10;2.10;;;;;;;5.33;100.00;96499.66;4229899;84;28619;-79
2020/12/28 21:44:05;;;;;;;4.85;2.15;;;;;;;5.38;100.00;96492.48;4358877;81;28600;-86
2020/12/28 21:50:08;;;;;;;4.42;2.12;;;;;;;5.37;100.00;96474.89;4342749;81;28572;-90
2020/12/28 21:56:21;;;;;;;3.47;1.90;;;;;;;5.34;100.00;96446.63;4341031;80;28972;-79
2020/12/28 22:02:35;;;;;;;4.22;2.08;;;;;;;5.35;100.00;96442.91;4327760;81;28555;-84
2020/12/28 22:08:42;;;;;;;4.45;1.85;;;;;;;5.26;100.00;96444.77;4224238;84;28595;-83
2020/12/28 22:14:47;;;;;;;5.33;2.37;;;;;;;5.27;100.00;96442.37;4227248;83;28570;-79
2020/12/28 22:20:50;;;;;;;4.12;2.42;;;;;;;5.32;100.00;96428.27;4269609;83;28578;-78
2020/12/28 22:26:53;;;;;;;4.85;1.80;;;;;;;5.31;100.00;96421.34;4203443;84;28686;-77
2020/12/28 22:32:56;;;;;;;4.10;2.20;;;;;;;5.28;100.00;96419.17;4179176;84;28557;-78
2020/12/28 22:38:58;;;;;;;3.08;1.72;;;;;;;5.18;100.00;96404.48;4179961;84;28559;-79
2020/12/28 22:45:02;;;;;;;1.90;1.17;;;;;;;5.21;100.00;96411.98;4222579;84;28600;-81
2020/12/28 22:57:18;;;;;;;3.15;1.50;;;;;;;5.52;100.00;96395.53;4622189;76;79943;-80
2020/12/28 23:03:20;;;;;;;2.35;1.52;;;;;;;5.49;100.00;96376.59;4515018;79;28563;-80
2020/12/28 23:09:22;;;;;;;3.27;1.40;;;;;;;5.50;100.00;96375.01;4515033;79;28551;-80
2020/12/28 23:15:24;;;;;;;2.22;1.27;;;;;;;5.60;100.00;96384.09;4515793;78;28590;-80
2020/12/28 23:21:30;;;;;;;2.47;1.40;;;;;;;5.66;100.00;96357.17;4485370;79;28558;-79
2020/12/28 23:27:32;;;;;;;2.57;1.20;;;;;;;5.77;100.00;96339.30;4510995;79;28590;-81
2020/12/28 23:33:34;;;;;;;2.55;1.20;;;;;;;5.78;100.00;96318.78;4504871;79;28571;-77
2020/12/28 23:39:36;;;;;;;2.60;1.30;;;;;;;5.67;100.00;96317.97;4503125;78;28595;-80
2020/12/28 23:45:39;;;;;;;2.85;1.00;;;;;;;5.61;100.00;96315.05;4482623;78;28569;-81
2020/12/28 23:51:41;;;;;;;2.92;1.35;;;;;;;5.80;100.00;96309.45;4490188;78;28579;-80
2020/12/28 23:57:43;;;;;;;1.62;1.00;;;;;;;5.96;100.00;96286.24;4465702;79;28595;-80
